Terminal Aerodrome Forecast
Issued by NWS Duluth, MN

Home | Current Version | Previous Version | Text Only | Print | Product List | Glossary On
Versions: 1 2 3 4 5 6 7 8 9 10 11 12 13 14 15 16 17 18 19 20 21 22 23 24 25 26 27 28 29 30 31 32 33 34 35 36
000
FTUS43 KDLH 282300 RRA
TAFDLH
TAF
KDLH 282356Z 2900/2924 36012KT P6SM VCSH SCT012 BKN050
      TEMPO 2900/2902 34014G20KT BKN012 OVC025
     FM290200 02008KT P6SM VCSH BKN012 OVC025
      TEMPO 2905/2909 05010KT 5SM -RA BR OVC008
     FM290900 06014G20KT P6SM VCSH OVC008
     FM291600 07012KT P6SM BKN018
     FM292000 08009KT P6SM BKN025=

USA.gov is the U.S. government's official web portal to all federal, state and local government web resources and services.